Latest Weather Observations for Minnipa RS

IDS60801

Issued at 11:05 am CST Saturday 19 April 2014 (issued every 30 minutes, with the page automatically refreshed every 10 minutes)

About weather observations | Map of weather stations | Latest weather observations for SA | Other Formats
Station Details ID: 018195 Name: MINNIPA PIRSA Lat: -32.84 Lon: 135.15 Height: 165.0 m
Data from the previous 72 hours. | See also: Recent months at Minnipa RS
Date/Time
CST
Temp
°C
App
Temp
°C
Dew
Point
Rel
Hum
%
Delta-T
°C
Wind Press
QNH
hPa
Press
MSL
hPa
Rain
since 9 am
mm
Dir
 
Spd
km/h
Gust
km/h
Spd
kts
Gust
kts
19/11:00am 18.2 16.6 8.7 54 4.9 NE 7 11 4 6 1022.0 - 0.0
19/10:30am 17.6 16.1 9.0 57 4.5 ESE 7 13 4 7 1022.4 - 0.0
19/10:00am 16.3 14.5 9.3 63 3.7 ESE 9 13 5 7 1022.5 - 0.0
19/09:30am 15.8 13.7 9.7 67 3.2 SE 11 13 6 7 1022.9 - 0.0
19/09:00am 14.7 12.6 9.7 72 2.6 SE 11 13 6 7 1022.9 1022.6 0.0
19/08:30am 13.8 12.0 9.5 75 2.2 ESE 9 13 5 7 1022.8 - 0.0
19/08:00am 13.2 11.4 9.5 78 1.9 SE 9 13 5 7 1022.7 - 0.0
19/07:30am 12.9 11.5 9.7 81 1.6 E 7 11 4 6 1022.4 - 0.0
19/07:00am 11.7 10.3 9.4 86 1.2 E 7 9 4 5 1022.4 - 0.0
19/06:30am 10.6 8.6 8.7 88 0.9 SE 9 11 5 6 1022.3 - 0.0
19/06:00am 10.0 7.8 7.8 86 1.1 SE 9 11 5 6 1022.2 1021.9 0.0
19/05:30am 10.4 8.3 8.3 87 1.0 SE 9 11 5 6 1022.1 - 0.0
19/05:00am 10.6 8.8 8.0 84 1.3 SSE 7 9 4 5 1022.1 - 0.0
19/04:30am 11.9 8.7 8.6 80 1.7 E 15 17 8 9 1022.0 - 0.0
19/04:00am 12.1 8.6 8.8 80 1.7 E 17 19 9 10 1021.8 - 0.0
19/03:30am 12.4 8.9 8.7 78 1.9 E 17 20 9 11 1021.8 - 0.0
19/03:00am 12.1 8.9 8.6 79 1.7 E 15 19 8 10 1022.1 1021.8 0.0
19/02:30am 12.7 9.3 9.0 78 1.9 E 17 20 9 11 1022.3 - 0.0
19/02:00am 13.0 9.0 8.9 76 2.1 E 20 24 11 13 1022.4 - 0.0
19/01:30am 12.8 9.5 9.4 80 1.7 E 17 20 9 11 1022.7 - 0.0
19/01:00am 12.7 9.3 9.3 80 1.7 E 17 19 9 10 1023.0 - 0.0
19/12:30am 12.7 9.7 9.3 80 1.7 E 15 19 8 10 1023.2 - 0.0
19/12:00am 13.0 9.6 9.1 77 2.0 E 17 20 9 11 1023.2 1022.9 0.0
 
Date/Time
CST
Temp
°C
App
Temp
°C
Dew
Point
Rel
Hum
%
Delta-T
°C
Wind Press
QNH
hPa
Press
MSL
hPa
Rain
since 9 am
mm
Dir
 
Spd
km/h
Gust
km/h
Spd
kts
Gust
kts
18/11:30pm 13.0 9.5 8.9 76 2.1 ESE 17 20 9 11 1023.3 - 0.0
18/11:00pm 13.2 9.8 9.1 76 2.1 ESE 17 20 9 11 1023.4 - 0.0
18/10:30pm 13.7 9.9 9.2 74 2.3 ESE 19 24 10 13 1023.4 - 0.0
18/10:00pm 14.0 10.3 9.4 74 2.4 SE 19 22 10 12 1023.6 - 0.0
18/09:30pm 14.5 10.7 9.7 73 2.5 SE 20 24 11 13 1023.5 - 0.0
18/09:00pm 15.1 11.3 9.7 70 2.8 SE 20 28 11 15 1023.3 1023.0 0.0
18/08:30pm 15.7 12.0 10.0 69 3.0 SE 20 24 11 13 1023.2 - 0.0
18/08:00pm 16.5 12.9 10.4 67 3.3 SE 20 26 11 14 1023.1 - 0.0
18/07:30pm 17.7 14.5 9.8 60 4.2 SSE 17 22 9 12 1022.9 - 0.0
18/07:00pm 18.3 15.6 10.2 59 4.4 SSE 15 19 8 10 1022.8 - 0.0
18/06:30pm 19.1 16.5 10.6 58 4.6 SSE 15 22 8 12 1022.4 - 0.0
18/06:00pm 19.9 17.4 10.9 56 4.9 SSE 15 20 8 11 1022.3 1022.0 0.0
18/05:30pm 20.7 17.5 11.3 55 5.2 SSE 19 24 10 13 1022.1 - 0.0
18/05:00pm 21.2 18.0 11.2 53 5.6 SSE 19 26 10 14 1022.0 - 0.0
18/04:30pm 21.6 18.2 11.3 52 5.8 SSE 20 26 11 14 1022.0 - 0.0
18/04:00pm 22.2 19.8 11.3 50 6.1 S 15 20 8 11 1021.9 - 0.0
18/03:30pm 22.4 19.6 11.2 49 6.3 S 17 22 9 12 1022.0 - 0.0
18/03:00pm 22.6 20.0 12.0 51 6.0 S 17 20 9 11 1022.1 1021.8 0.0
18/02:30pm 22.5 20.7 12.2 52 5.9 S 13 19 7 10 1022.2 - 0.0
18/02:00pm 22.6 20.9 12.3 52 5.9 S 13 19 7 10 1022.2 - 0.0
18/01:30pm 22.3 20.1 12.0 52 5.8 S 15 24 8 13 1022.4 - 0.0
18/01:00pm 21.8 20.5 12.4 55 5.4 S 11 20 6 11 1022.8 - 0.0
18/12:30pm 21.9 20.8 13.0 57 5.1 S 11 19 6 10 1023.3 - 0.0
18/12:00pm 21.1 19.2 13.0 60 4.6 S 15 24 8 13 1023.7 1023.4 0.0
18/11:30am 21.9 20.9 13.3 58 5.0 S 11 17 6 9 1023.9 - 0.0
18/11:00am 20.8 19.2 12.8 60 4.6 SSE 13 19 7 10 1024.1 - 0.0
18/10:30am 20.4 18.5 12.9 62 4.3 S 15 24 8 13 1024.2 - 0.0
18/10:00am 19.9 17.1 12.7 63 4.1 SSE 19 24 10 13 1024.4 - 0.0
18/09:30am 19.4 17.0 12.7 65 3.8 SSE 17 22 9 12 1024.2 - 0.0
18/09:00am 19.1 17.4 12.6 66 3.7 SSE 13 19 7 10 1024.0 1023.6 0.2
18/08:30am 18.1 16.3 11.0 63 3.9 SE 11 15 6 8 1023.7 - 0.2
18/08:00am 17.0 16.3 11.5 70 3.0 ESE 6 7 3 4 1023.5 - 0.2
18/07:30am 14.5 13.6 11.3 81 1.7 ESE 7 9 4 5 1023.2 - 0.2
18/07:00am 13.8 12.3 10.6 81 1.7 ESE 9 11 5 6 1022.7 - 0.2
18/06:30am 13.8 12.4 11.0 83 1.5 ESE 9 11 5 6 1022.5 - 0.2
18/06:00am 14.0 13.0 12.2 89 1.0 E 9 11 5 6 1022.5 1022.2 0.2
18/05:30am 14.1 12.8 12.5 90 0.9 E 11 13 6 7 1022.3 - 0.2
18/05:00am 14.3 13.1 12.9 91 0.8 E 11 13 6 7 1022.2 - 0.2
18/04:30am 14.3 12.7 12.9 91 0.8 E 13 15 7 8 1022.0 - 0.2
18/04:00am 14.2 12.2 12.8 91 0.8 E 15 17 8 9 1021.8 - 0.2
18/03:30am 13.9 11.8 12.3 90 0.9 E 15 17 8 9 1021.7 - 0.2
18/03:00am 14.6 13.1 13.0 90 0.9 ESE 13 13 7 7 1021.7 1021.4 0.2
18/02:30am 14.6 13.0 12.8 89 1.0 ESE 13 13 7 7 1021.7 - 0.2
18/02:00am 14.0 12.5 12.0 88 1.1 E 11 13 6 7 1022.0 - 0.2
18/01:30am 14.2 12.4 12.1 87 1.1 E 13 15 7 8 1021.8 - 0.2
18/01:00am 14.1 12.1 11.4 84 1.5 E 13 15 7 8 1021.9 - 0.2
18/12:30am 13.9 11.8 11.2 84 1.4 E 13 17 7 9 1021.7 - 0.2
18/12:00am 14.0 12.5 12.0 88 1.1 SE 11 13 6 7 1021.9 1021.6 0.2
 
Date/Time
CST
Temp
°C
App
Temp
°C
Dew
Point
Rel
Hum
%
Delta-T
°C
Wind Press
QNH
hPa
Press
MSL
hPa
Rain
since 9 am
mm
Dir
 
Spd
km/h
Gust
km/h
Spd
kts
Gust
kts
17/11:30pm 14.8 13.3 13.0 89 1.0 E 13 22 7 12 1022.0 - 0.2
17/11:00pm 14.6 13.7 12.6 88 1.1 ESE 9 9 5 5 1022.0 - 0.2
17/10:30pm 14.8 14.1 11.9 83 1.6 ESE 7 9 4 5 1022.5 - 0.2
17/10:00pm 15.0 13.7 11.2 78 2.0 S 9 9 5 5 1022.7 - 0.2
17/09:30pm 15.5 13.7 10.7 73 2.6 S 11 13 6 7 1022.6 - 0.2
17/09:00pm 16.1 13.7 10.0 67 3.2 SSW 13 17 7 9 1022.6 1022.3 0.2
17/08:30pm 16.4 14.6 9.6 64 3.6 SSW 9 11 5 6 1022.3 - 0.2
17/08:00pm 17.7 15.0 9.1 57 4.5 SSW 13 15 7 8 1022.1 - 0.2
17/07:30pm 18.7 16.6 8.4 51 5.4 SW 9 13 5 7 1021.7 - 0.2
17/07:00pm 19.8 17.4 8.5 48 5.9 W 11 13 6 7 1021.3 - 0.2
17/06:30pm 20.9 18.6 8.9 46 6.4 W 11 15 6 8 1021.0 - 0.2
17/06:00pm 22.4 19.4 9.2 43 7.1 WSW 15 20 8 11 1020.9 1020.6 0.2
17/05:30pm 23.6 19.9 8.1 37 8.3 W 17 22 9 12 1020.6 - 0.2
17/05:00pm 24.8 20.5 7.9 34 9.0 WSW 20 28 11 15 1020.3 - 0.2
17/04:30pm 25.4 21.0 7.5 32 9.5 W 20 32 11 17 1020.3 - 0.2
17/04:00pm 25.8 21.1 7.9 32 9.6 W 22 32 12 17 1020.3 - 0.2
17/03:30pm 26.1 21.7 7.2 30 10.1 WNW 20 30 11 16 1020.2 - 0.2
17/03:00pm 26.5 21.8 6.0 27 10.7 W 20 30 11 16 1020.2 1019.9 0.2
17/02:30pm 27.1 23.2 7.0 28 10.7 WNW 17 28 9 15 1020.3 - 0.2
17/02:00pm 26.6 21.9 6.1 27 10.7 WNW 20 30 11 16 1020.5 - 0.2
17/01:30pm 26.0 20.9 6.1 28 10.4 W 22 30 12 16 1020.7 - 0.2
17/01:00pm 25.6 20.5 4.1 25 10.8 NW 20 30 11 16 1021.1 - 0.2
17/12:30pm 24.9 20.0 4.1 26 10.4 NW 19 26 10 14 1021.5 - 0.2
17/12:00pm 24.4 19.8 5.7 30 9.6 WNW 19 28 10 15 1021.9 1021.6 0.2
17/11:30am 23.9 19.4 6.2 32 9.1 WNW 19 24 10 13 1022.2 - 0.2
17/11:00am 23.2 19.0 5.6 32 8.9 NW 17 22 9 12 1022.3 - 0.2
17/10:30am 22.0 18.9 8.9 43 7.0 NW 15 22 8 12 1022.4 - 0.2
17/10:00am 20.5 17.9 10.6 53 5.4 NNW 15 20 8 11 1022.6 - 0.0
17/09:30am 18.7 15.9 11.5 63 4.0 N 17 20 9 11 1022.6 - 0.0
17/09:00am 17.0 14.4 11.9 72 2.8 N 17 20 9 11 1022.5 1022.2 0.0
17/08:30am 16.1 14.3 12.1 77 2.2 N 13 17 7 9 1022.2 - 0.0
17/08:00am 15.0 13.3 12.3 84 1.5 N 13 17 7 9 1022.0 - 0.0
17/07:30am 13.5 11.3 12.2 92 0.7 NE 15 17 8 9 1021.6 - 0.0
17/07:00am 13.1 10.2 12.2 94 0.5 NE 19 20 10 11 1021.2 - 0.0
17/06:30am 13.2 10.3 12.4 95 0.4 ENE 19 20 10 11 1021.0 - 0.0
17/06:00am 13.0 9.9 12.2 95 0.4 ENE 20 22 11 12 1021.1 1020.8 0.0
17/05:30am 12.9 9.9 12.1 95 0.4 ENE 19 24 10 13 1020.9 - 0.0
17/05:00am 12.6 10.7 11.8 95 0.4 ENE 13 22 7 12 1020.8 - 0.0
17/04:30am 12.7 11.6 11.8 94 0.5 E 9 11 5 6 1020.9 - 0.0
17/04:00am 12.4 10.8 11.5 94 0.5 E 11 13 6 7 1020.6 - 0.0
17/03:30am 12.8 10.6 12.0 95 0.4 E 15 17 8 9 1020.6 - 0.0
17/03:00am 12.9 11.5 12.1 95 0.4 E 11 13 6 7 1020.7 1020.4 0.0
17/02:30am 13.1 11.0 12.3 95 0.4 E 15 17 8 9 1020.8 - 0.0
17/02:00am 13.0 11.2 12.2 95 0.4 E 13 13 7 7 1021.2 - 0.0
17/01:30am 13.3 12.0 12.5 95 0.4 E 11 13 6 7 1021.4 - 0.0
17/01:00am 13.5 12.6 12.7 95 0.4 ESE 9 11 5 6 1021.5 - 0.0
17/12:30am 13.7 12.9 12.8 94 0.5 SE 9 9 5 5 1021.6 - 0.0
17/12:00am 13.3 12.3 12.4 94 0.5 SE 9 9 5 5 1021.6 1021.3 0.0
 
Date/Time
CST
Temp
°C
App
Temp
°C
Dew
Point
Rel
Hum
%
Delta-T
°C
Wind Press
QNH
hPa
Press
MSL
hPa
Rain
since 9 am
mm
Dir
 
Spd
km/h
Gust
km/h
Spd
kts
Gust
kts
16/11:30pm 13.6 12.7 12.5 93 0.6 SE 9 11 5 6 1021.8 - 0.0
16/11:00pm 13.6 12.6 12.3 92 0.7 SE 9 9 5 5 1022.1 - 0.0
16/10:30pm 14.0 13.5 12.6 91 0.8 S 7 9 4 5 1022.0 - 0.0
16/10:00pm 13.9 13.5 12.3 90 0.9 SSE 6 6 3 3 1022.1 - 0.0
16/09:30pm 14.3 13.8 12.7 90 0.9 SE 7 9 4 5 1022.1 - 0.0
16/09:00pm 14.4 13.3 12.1 86 1.2 SSE 9 9 5 5 1022.1 1021.8 0.0
16/08:30pm 15.2 14.3 12.5 84 1.5 S 9 11 5 6 1022.0 - 0.0
16/08:00pm 15.7 14.8 12.5 81 1.8 S 9 11 5 6 1021.8 - 0.0
16/07:30pm 16.2 14.9 12.4 78 2.1 SSW 11 13 6 7 1021.4 - 0.0
16/07:00pm 16.8 15.1 12.3 75 2.5 SSW 13 17 7 9 1021.2 - 0.0
16/06:30pm 17.8 14.8 11.8 68 3.3 SSW 19 26 10 14 1021.0 - 0.0
16/06:00pm 19.1 15.4 10.1 56 4.8 SSW 20 26 11 14 1020.8 1020.5 0.0
16/05:30pm 20.4 16.2 8.4 46 6.3 SW 20 28 11 15 1020.6 - 0.0
16/05:00pm 21.7 16.1 5.2 34 8.2 SW 24 32 13 17 1020.3 - 0.0
16/04:30pm 22.1 16.7 8.2 41 7.4 SW 26 39 14 21 1020.0 - 0.0
16/04:00pm 22.9 17.9 8.2 39 7.8 SSW 24 32 13 17 1020.0 - 0.0
16/03:30pm 23.7 18.4 6.9 34 8.8 SSW 24 32 13 17 1019.9 - 0.0
16/03:00pm 24.7 19.6 6.0 30 9.6 W 22 30 12 16 1020.0 1019.7 0.0
16/02:30pm 24.8 19.2 5.6 29 9.9 W 24 33 13 18 1019.9 - 0.0
16/02:00pm 24.7 19.0 5.0 28 10.0 WNW 24 35 13 19 1019.8 - 0.0
16/01:30pm 24.9 19.5 4.6 27 10.2 WNW 22 33 12 18 1019.9 - 0.0
16/01:00pm 24.6 19.0 3.3 25 10.5 NW 22 30 12 16 1020.3 - 0.0
16/12:30pm 23.5 18.6 4.0 28 9.6 WNW 19 30 10 16 1020.5 - 0.0
16/12:00pm 23.2 18.4 4.7 30 9.2 NNW 19 22 10 12 1020.9 1020.6 0.0
16/11:30am 22.1 17.7 6.7 37 7.9 NW 19 28 10 15 1021.5 - 0.0

Other Formats:

Comma delimited format used in spreadsheet applications
http://www.bom.gov.au/fwo/IDS60801/IDS60801.95662.axf

JavaScript Object Notation format (JSON) in row-major order
http://www.bom.gov.au/fwo/IDS60801/IDS60801.95662.json